createdAt,value
2023-07-25T00:00:37.497Z,21.97
2023-07-25T00:05:55.753Z,21.93
2023-07-25T00:08:24.790Z,21.92
2023-07-25T00:10:54.178Z,21.88
2023-07-25T00:13:23.500Z,21.84
2023-07-25T00:15:54.407Z,21.85
2023-07-25T00:18:23.550Z,21.84
2023-07-25T00:20:53.195Z,21.86
2023-07-25T00:23:22.357Z,21.84
2023-07-25T00:25:51.754Z,21.84
2023-07-25T00:28:21.462Z,21.86
2023-07-25T00:30:56.874Z,21.84
2023-07-25T00:33:30.225Z,21.85
2023-07-25T00:35:59.665Z,21.84
2023-07-25T00:38:28.757Z,21.89
2023-07-25T00:40:58.153Z,21.97
2023-07-25T00:43:27.316Z,22.00
2023-07-25T00:45:56.753Z,21.99
2023-07-25T00:48:25.862Z,21.91
2023-07-25T00:50:56.740Z,21.89
2023-07-25T00:53:25.811Z,21.84
2023-07-25T00:55:55.237Z,21.82
2023-07-25T00:58:24.322Z,21.80
2023-07-25T01:00:53.765Z,21.77
2023-07-25T01:03:23.012Z,21.72
2023-07-25T01:05:52.501Z,21.67
2023-07-25T01:08:22.966Z,21.63
2023-07-25T01:10:52.438Z,21.59
2023-07-25T01:13:21.585Z,21.56
2023-07-25T01:15:51.394Z,21.56
2023-07-25T01:18:20.455Z,21.58
2023-07-25T01:20:50.143Z,21.56
2023-07-25T01:23:19.247Z,21.57
2023-07-25T01:25:50.261Z,21.54
2023-07-25T01:28:19.313Z,21.57
2023-07-25T01:30:49.073Z,21.57
2023-07-25T01:33:18.174Z,21.60
2023-07-25T01:35:47.629Z,21.59
2023-07-25T01:38:16.773Z,21.61
2023-07-25T01:40:46.150Z,21.59
2023-07-25T01:43:16.651Z,21.60
2023-07-25T01:45:46.125Z,21.58
2023-07-25T01:48:15.170Z,21.59
2023-07-25T01:50:44.530Z,21.62
2023-07-25T01:53:13.577Z,21.62
2023-07-25T01:55:43.020Z,21.59
2023-07-25T01:58:12.103Z,21.55
2023-07-25T02:00:43.221Z,21.47
2023-07-25T02:03:12.551Z,21.52
2023-07-25T02:05:42.024Z,21.46
2023-07-25T02:08:12.216Z,21.44
2023-07-25T02:10:41.724Z,21.42
2023-07-25T02:13:10.741Z,21.42
2023-07-25T02:15:40.101Z,21.40
2023-07-25T02:18:10.580Z,21.37
2023-07-25T02:20:40.071Z,21.34
2023-07-25T02:23:09.243Z,21.33
2023-07-25T02:25:38.632Z,21.35
2023-07-25T02:28:07.715Z,21.36
2023-07-25T02:30:37.074Z,21.37
2023-07-25T02:33:06.237Z,21.38
2023-07-25T02:35:37.370Z,21.35
2023-07-25T02:38:06.454Z,21.34
2023-07-25T02:40:35.854Z,21.32
2023-07-25T02:43:05.009Z,21.30
2023-07-25T02:45:34.381Z,21.32
2023-07-25T02:48:03.645Z,21.34
2023-07-25T02:50:33.138Z,21.30
2023-07-25T02:53:03.610Z,21.31
2023-07-25T02:55:32.980Z,21.33
2023-07-25T02:58:01.994Z,21.30
2023-07-25T03:00:31.502Z,21.32
2023-07-25T03:03:00.658Z,21.32
2023-07-25T03:05:30.380Z,21.26
2023-07-25T03:07:59.457Z,21.24
2023-07-25T03:10:30.371Z,21.23
2023-07-25T03:12:59.418Z,21.18
2023-07-25T03:15:28.788Z,21.20
2023-07-25T03:17:57.841Z,21.16
2023-07-25T03:20:27.512Z,21.18
2023-07-25T03:22:56.742Z,21.15
2023-07-25T03:25:26.181Z,21.11
2023-07-25T03:27:56.682Z,21.10
2023-07-25T03:30:26.115Z,21.07
2023-07-25T03:32:55.275Z,21.09
2023-07-25T03:35:24.823Z,21.08
2023-07-25T03:37:53.924Z,21.06
2023-07-25T03:40:23.348Z,21.08
2023-07-25T03:42:52.396Z,21.03
2023-07-25T03:45:23.125Z,21.05
2023-07-25T03:47:52.177Z,21.07
2023-07-25T03:50:21.740Z,21.09
2023-07-25T03:52:50.819Z,21.11
2023-07-25T03:55:20.262Z,21.12
2023-07-25T03:57:49.312Z,21.17
2023-07-25T04:00:17.797Z,21.18
2023-07-25T04:02:57.300Z,21.22
2023-07-25T04:05:34.772Z,21.24
2023-07-25T04:08:04.235Z,21.28
2023-07-25T04:10:33.700Z,21.33
2023-07-25T04:13:02.792Z,21.29
2023-07-25T04:15:32.199Z,21.38
2023-07-25T04:18:03.049Z,21.43
2023-07-25T04:20:32.541Z,21.46
2023-07-25T04:23:03.144Z,21.45
2023-07-25T04:25:32.595Z,21.53
2023-07-25T04:28:01.686Z,21.62
2023-07-25T04:30:31.240Z,21.58
2023-07-25T04:33:00.374Z,21.64
2023-07-25T04:35:31.475Z,21.66
2023-07-25T04:38:00.696Z,21.71
2023-07-25T04:40:31.128Z,21.79
2023-07-25T04:43:00.394Z,21.79
2023-07-25T04:45:30.204Z,21.83
2023-07-25T04:48:03.777Z,21.87
2023-07-25T04:50:46.353Z,21.92
2023-07-25T04:53:15.544Z,22.03
2023-07-25T04:55:45.218Z,22.03
2023-07-25T04:58:14.395Z,22.07
2023-07-25T05:00:44.223Z,22.10
2023-07-25T05:03:13.559Z,22.09
2023-07-25T05:05:47.781Z,22.08
2023-07-25T05:08:17.009Z,22.10
2023-07-25T05:10:46.606Z,22.10
2023-07-25T05:13:15.840Z,22.06
2023-07-25T05:15:45.408Z,22.00
2023-07-25T05:18:14.585Z,22.03
2023-07-25T05:20:45.549Z,22.04
2023-07-25T05:23:16.258Z,22.05
2023-07-25T05:25:50.573Z,22.03
2023-07-25T05:28:20.308Z,22.03
2023-07-25T05:30:50.048Z,22.04
2023-07-25T05:33:28.545Z,22.08
2023-07-25T05:36:03.879Z,22.09
2023-07-25T05:38:34.532Z,22.12
2023-07-25T05:41:14.782Z,22.13
2023-07-25T05:43:46.820Z,22.20
2023-07-25T05:46:16.585Z,22.26
2023-07-25T05:48:45.914Z,22.18
2023-07-25T05:51:18.098Z,22.22
2023-07-25T05:53:48.844Z,22.26
2023-07-25T05:56:18.476Z,22.28
2023-07-25T05:58:47.865Z,22.29
2023-07-25T06:01:17.479Z,22.30
2023-07-25T06:03:46.675Z,22.35
2023-07-25T06:06:16.241Z,22.37
2023-07-25T06:08:45.505Z,22.34
2023-07-25T06:11:17.033Z,22.44
2023-07-25T06:13:48.042Z,22.44
2023-07-25T06:16:17.767Z,22.44
2023-07-25T06:18:46.900Z,22.42
2023-07-25T06:21:16.303Z,22.43
2023-07-25T06:23:45.301Z,22.44
2023-07-25T06:26:14.737Z,22.47
2023-07-25T06:28:45.647Z,22.47
2023-07-25T06:31:15.140Z,22.46
2023-07-25T06:33:44.349Z,22.52
2023-07-25T06:36:13.738Z,22.49
2023-07-25T06:38:42.806Z,22.53
2023-07-25T06:41:12.646Z,22.55
2023-07-25T06:43:42.249Z,22.54
2023-07-25T06:46:13.130Z,22.58
2023-07-25T06:48:42.403Z,22.58
2023-07-25T06:51:11.838Z,22.65
2023-07-25T06:53:40.910Z,22.66
2023-07-25T06:56:11.527Z,22.72
2023-07-25T06:58:40.714Z,22.75
2023-07-25T07:01:12.660Z,22.82
2023-07-25T07:06:41.867Z,22.79
2023-07-25T07:09:11.006Z,22.80
2023-07-25T07:12:27.585Z,22.85
2023-07-25T07:14:59.593Z,22.89
2023-07-25T07:17:30.103Z,22.90
2023-07-25T07:20:01.905Z,23.00
2023-07-25T07:22:36.828Z,22.96
2023-07-25T07:25:07.431Z,22.97
2023-07-25T07:27:50.834Z,23.00
2023-07-25T07:30:25.853Z,23.00
2023-07-25T07:33:16.012Z,23.17
2023-07-25T07:35:50.898Z,23.08
2023-07-25T07:39:06.480Z,23.11
2023-07-25T08:00:00.632Z,23.25
2023-07-25T08:02:34.025Z,23.32
2023-07-25T08:05:03.302Z,23.41
2023-07-25T08:07:32.741Z,23.43
2023-07-25T08:10:01.988Z,23.50
2023-07-25T08:12:31.712Z,23.50
2023-07-25T08:15:02.301Z,23.51
2023-07-25T08:17:31.767Z,23.57
2023-07-25T08:20:01.413Z,23.59
2023-07-25T08:22:37.014Z,23.61
2023-07-25T08:25:15.548Z,23.63
2023-07-25T08:27:44.960Z,23.64
2023-07-25T08:30:15.576Z,23.65
2023-07-25T08:32:45.021Z,23.66
2023-07-25T08:35:14.167Z,23.66
2023-07-25T08:37:43.621Z,23.60
2023-07-25T08:40:13.204Z,23.62
2023-07-25T08:42:43.622Z,23.66
2023-07-25T08:45:17.198Z,23.68
2023-07-25T08:47:47.454Z,23.61
2023-07-25T08:50:17.123Z,23.67
2023-07-25T08:52:48.504Z,23.63
2023-07-25T08:55:17.831Z,23.60
2023-07-25T08:57:52.673Z,23.65
2023-07-25T09:00:47.864Z,23.63
2023-07-25T09:03:36.273Z,23.58
2023-07-25T09:06:18.831Z,23.60
2023-07-25T09:09:03.130Z,23.63
2023-07-25T09:11:51.938Z,23.64
2023-07-25T09:14:26.965Z,23.65
2023-07-25T09:17:05.052Z,23.66
2023-07-25T09:19:42.225Z,23.64
2023-07-25T09:22:30.710Z,23.71
2023-07-25T09:25:14.553Z,23.72
2023-07-25T09:28:01.368Z,23.77
2023-07-25T09:31:06.600Z,23.84
2023-07-25T09:34:10.881Z,23.89
2023-07-25T09:37:17.669Z,23.93
2023-07-25T09:40:17.654Z,23.99
2023-07-25T09:42:55.701Z,24.10
2023-07-25T09:46:14.294Z,24.17
2023-07-25T09:49:02.969Z,24.17
2023-07-25T09:52:13.254Z,24.23
2023-07-25T09:55:13.363Z,24.27
2023-07-25T09:57:55.817Z,24.32
2023-07-25T10:04:06.853Z,24.39
2023-07-25T10:06:41.404Z,24.43
2023-07-25T10:09:37.229Z,24.50
2023-07-25T10:12:29.202Z,24.57
2023-07-25T10:15:15.150Z,24.64
2023-07-25T10:18:01.903Z,24.71
2023-07-25T10:20:36.066Z,24.71
2023-07-25T10:23:18.638Z,24.75
2023-07-25T10:26:10.412Z,24.73
2023-07-25T10:33:35.026Z,24.78
2023-07-25T10:36:59.368Z,24.73
2023-07-25T10:39:50.580Z,24.83
2023-07-25T10:43:08.080Z,24.82
2023-07-25T10:46:08.111Z,24.80
2023-07-25T10:49:42.638Z,24.87
2023-07-25T10:56:38.590Z,24.78
2023-07-25T11:03:15.387Z,24.79
2023-07-25T11:06:37.594Z,24.75
2023-07-25T11:28:09.445Z,24.49
2023-07-25T11:48:04.940Z,24.86
2023-07-25T11:51:26.401Z,24.90
2023-07-25T11:54:09.978Z,24.97
2023-07-25T11:56:46.252Z,25.01
2023-07-25T11:59:19.294Z,25.04
2023-07-25T12:01:50.266Z,25.07
2023-07-25T12:04:30.965Z,25.15
2023-07-25T12:07:03.721Z,25.11
2023-07-25T12:09:37.591Z,25.18
2023-07-25T12:12:13.667Z,25.19
2023-07-25T12:14:43.383Z,25.18
2023-07-25T12:17:12.807Z,25.19
2023-07-25T12:19:41.978Z,25.19
2023-07-25T12:22:13.070Z,25.16
2023-07-25T12:24:42.478Z,25.13
2023-07-25T12:27:17.374Z,25.09
2023-07-25T12:29:46.509Z,25.06
2023-07-25T12:32:16.021Z,25.12
2023-07-25T12:34:46.423Z,25.12
2023-07-25T12:37:17.343Z,25.10
2023-07-25T12:39:48.266Z,25.10
2023-07-25T12:42:17.798Z,25.07
2023-07-25T12:44:46.928Z,25.06
2023-07-25T12:47:16.461Z,25.05
2023-07-25T12:49:45.706Z,25.00
2023-07-25T12:52:15.344Z,25.01
2023-07-25T12:54:46.008Z,25.03
2023-07-25T12:57:15.628Z,25.03
2023-07-25T12:59:44.930Z,25.01
2023-07-25T13:02:14.504Z,25.01
2023-07-25T13:04:43.689Z,24.99
2023-07-25T13:07:13.182Z,24.97
2023-07-25T13:09:42.303Z,24.94
2023-07-25T13:12:13.271Z,24.92
2023-07-25T13:14:42.424Z,24.78
2023-07-25T13:17:11.914Z,24.68
2023-07-25T13:19:41.018Z,24.65
2023-07-25T13:22:10.450Z,24.74
2023-07-25T13:24:39.572Z,24.65
2023-07-25T13:27:09.084Z,24.66
2023-07-25T13:29:39.583Z,24.70
2023-07-25T13:32:09.668Z,24.72
2023-07-25T13:34:38.828Z,24.68
2023-07-25T13:37:08.293Z,24.67
2023-07-25T13:39:37.460Z,24.68
2023-07-25T13:42:07.300Z,24.69
2023-07-25T13:44:36.463Z,24.71
2023-07-25T13:47:07.561Z,24.69
2023-07-25T13:49:36.729Z,24.65
2023-07-25T13:52:06.541Z,24.62
2023-07-25T13:54:35.735Z,24.61
2023-07-25T13:57:05.360Z,24.58
2023-07-25T13:59:34.562Z,24.53
2023-07-25T14:02:04.372Z,24.47
2023-07-25T14:04:35.092Z,24.54
2023-07-25T14:07:04.616Z,24.53
2023-07-25T14:09:33.792Z,24.57
2023-07-25T14:12:03.231Z,24.60
2023-07-25T14:14:32.332Z,24.63
2023-07-25T14:17:02.383Z,24.64
2023-07-25T14:19:31.693Z,24.73
2023-07-25T14:22:02.783Z,24.80
2023-07-25T14:24:31.989Z,24.88
2023-07-25T14:27:01.561Z,24.91
2023-07-25T14:29:30.702Z,24.97
2023-07-25T14:32:00.624Z,24.99
2023-07-25T14:34:29.696Z,25.02
2023-07-25T14:36:59.180Z,24.98
2023-07-25T14:39:29.831Z,25.04
2023-07-25T14:41:59.373Z,25.04
2023-07-25T14:44:28.509Z,25.01
2023-07-25T14:46:58.056Z,25.01
2023-07-25T14:49:27.120Z,25.12
2023-07-25T14:51:56.601Z,25.27
2023-07-25T14:54:25.680Z,25.44
2023-07-25T14:56:56.752Z,25.65
2023-07-25T14:59:25.767Z,25.88
2023-07-25T15:01:57.694Z,26.11
2023-07-25T15:04:26.863Z,26.31
2023-07-25T15:06:56.397Z,26.46
2023-07-25T15:09:25.535Z,26.50
2023-07-25T15:11:56.482Z,26.63
2023-07-25T15:14:25.769Z,26.64
2023-07-25T15:16:56.873Z,26.72
2023-07-25T15:19:28.176Z,26.82
2023-07-25T15:21:58.239Z,26.91
2023-07-25T15:24:27.422Z,26.98
2023-07-25T15:26:58.873Z,27.01
2023-07-25T15:29:28.112Z,26.96
2023-07-25T15:31:58.609Z,27.01
2023-07-25T15:34:27.670Z,27.05
2023-07-25T15:37:01.625Z,27.00
2023-07-25T15:39:30.704Z,26.97
2023-07-25T15:42:01.539Z,26.91
2023-07-25T15:44:30.533Z,26.85
2023-07-25T15:47:00.227Z,26.82
2023-07-25T15:49:35.296Z,26.71
2023-07-25T15:52:05.044Z,26.61
2023-07-25T15:54:34.276Z,26.64
2023-07-25T15:57:05.528Z,26.62
2023-07-25T15:59:34.580Z,26.62
2023-07-25T16:02:03.998Z,26.67
2023-07-25T16:04:33.199Z,26.61
2023-07-25T16:07:02.538Z,26.55
2023-07-25T16:09:31.801Z,26.29
2023-07-25T16:12:01.135Z,26.33
2023-07-25T16:14:31.622Z,26.28
2023-07-25T16:17:01.038Z,26.29
2023-07-25T16:19:30.180Z,26.10
2023-07-25T16:21:59.548Z,25.92
2023-07-25T16:24:28.609Z,25.91
2023-07-25T16:26:58.012Z,25.85
2023-07-25T16:29:27.107Z,25.85
2023-07-25T16:31:58.949Z,25.78
2023-07-25T16:34:28.052Z,25.74
2023-07-25T16:36:57.515Z,25.73
2023-07-25T16:39:26.658Z,25.68
2023-07-25T16:41:56.081Z,25.67
2023-07-25T16:44:29.314Z,25.66
2023-07-25T16:47:02.400Z,25.65
2023-07-25T16:49:31.699Z,25.65
2023-07-25T16:52:01.988Z,25.51
2023-07-25T16:54:31.218Z,25.45
2023-07-25T16:57:00.677Z,25.48
2023-07-25T16:59:31.997Z,25.45
2023-07-25T17:02:03.142Z,25.44
2023-07-25T17:04:32.303Z,25.44
2023-07-25T17:07:01.919Z,25.50
2023-07-25T17:09:31.130Z,25.43
2023-07-25T17:12:03.589Z,25.38
2023-07-25T17:14:33.527Z,25.41
2023-07-25T17:17:04.475Z,25.40
2023-07-25T17:19:33.653Z,25.37
2023-07-25T17:22:03.092Z,25.38
2023-07-25T17:24:32.243Z,25.37
2023-07-25T17:27:01.634Z,25.33
2023-07-25T17:29:30.747Z,25.30
2023-07-25T17:32:00.330Z,25.29
2023-07-25T17:34:32.380Z,25.26
2023-07-25T17:37:02.027Z,25.17
2023-07-25T17:39:31.083Z,25.21
2023-07-25T17:42:00.552Z,25.11
2023-07-25T17:44:29.602Z,25.12
2023-07-25T17:46:59.057Z,25.08
2023-07-25T17:49:28.162Z,25.03
2023-07-25T17:51:59.024Z,24.99
2023-07-25T17:54:28.099Z,24.97
2023-07-25T17:56:57.539Z,24.93
2023-07-25T17:59:26.618Z,24.93
2023-07-25T18:01:56.087Z,24.78
2023-07-25T18:04:25.255Z,24.83
2023-07-25T18:06:55.245Z,24.86
2023-07-25T18:09:26.114Z,24.84
2023-07-25T18:11:56.125Z,24.90
2023-07-25T18:14:25.318Z,24.85
2023-07-25T18:16:54.846Z,24.80
2023-07-25T18:19:24.180Z,24.83
2023-07-25T18:21:53.719Z,24.82
2023-07-25T18:24:22.957Z,24.78
2023-07-25T18:26:53.922Z,24.73
2023-07-25T18:29:23.057Z,24.67
2023-07-25T18:31:52.496Z,24.64
2023-07-25T18:34:21.716Z,24.58
2023-07-25T18:36:51.200Z,24.51
2023-07-25T18:39:20.342Z,24.46
2023-07-25T18:41:54.262Z,24.42
2023-07-25T18:44:23.415Z,24.36
2023-07-25T18:46:52.923Z,24.32
2023-07-25T18:49:22.289Z,24.26
2023-07-25T18:51:51.942Z,24.20
2023-07-25T18:54:21.135Z,24.18
2023-07-25T18:56:50.877Z,24.12
2023-07-25T18:59:21.560Z,24.08
2023-07-25T19:01:51.874Z,24.02
2023-07-25T19:04:21.321Z,23.99
2023-07-25T19:06:50.812Z,23.95
2023-07-25T19:09:21.568Z,23.89
2023-07-25T19:11:51.277Z,23.86
2023-07-25T19:14:28.073Z,23.82
2023-07-25T19:16:59.243Z,23.80
2023-07-25T19:19:31.320Z,23.74
2023-07-25T19:22:00.878Z,23.67
2023-07-25T19:24:30.022Z,23.65
2023-07-25T19:27:01.006Z,23.60
2023-07-25T19:29:31.705Z,23.54
2023-07-25T19:32:01.196Z,23.48
2023-07-25T19:34:30.481Z,23.43
2023-07-25T19:37:00.008Z,23.32
2023-07-25T19:39:29.139Z,23.22
2023-07-25T19:41:58.665Z,23.20
2023-07-25T19:44:27.730Z,23.12
2023-07-25T19:46:58.812Z,23.06
2023-07-25T19:49:27.906Z,23.01
2023-07-25T19:51:57.494Z,22.93
2023-07-25T19:54:26.602Z,22.85
2023-07-25T19:56:56.028Z,22.78
2023-07-25T19:59:25.264Z,22.72
2023-07-25T20:01:55.279Z,22.63
2023-07-25T20:04:25.918Z,22.62
2023-07-25T20:06:55.598Z,22.57
2023-07-25T20:09:24.824Z,22.54
2023-07-25T20:11:56.362Z,22.50
2023-07-25T20:14:25.583Z,22.45
2023-07-25T20:16:55.276Z,22.42
2023-07-25T20:19:27.189Z,22.35
2023-07-25T20:21:56.726Z,22.29
2023-07-25T20:24:30.648Z,22.25
2023-07-25T20:27:03.188Z,22.20
2023-07-25T20:29:32.278Z,22.17
2023-07-25T20:32:01.914Z,22.10
2023-07-25T20:34:32.423Z,22.07
2023-07-25T20:37:02.297Z,22.03
2023-07-25T20:39:31.740Z,21.98
2023-07-25T20:42:02.480Z,21.92
2023-07-25T20:44:31.845Z,21.88
2023-07-25T20:47:01.421Z,21.83
2023-07-25T20:49:30.646Z,21.79
2023-07-25T20:52:01.857Z,21.73
2023-07-25T20:54:31.099Z,21.67
2023-07-25T20:57:00.829Z,21.63
2023-07-25T20:59:30.041Z,21.59
2023-07-25T21:01:59.690Z,21.54
2023-07-25T21:04:29.230Z,21.45
2023-07-25T21:06:58.929Z,21.38
2023-07-25T21:09:31.070Z,21.30
2023-07-25T21:12:00.480Z,21.25
2023-07-25T21:14:29.548Z,21.16
2023-07-25T21:17:00.040Z,21.09
2023-07-25T21:19:29.109Z,21.02
2023-07-25T21:21:58.553Z,20.94
2023-07-25T21:24:46.201Z,20.92
2023-07-25T21:27:51.594Z,20.85
2023-07-25T21:30:44.847Z,20.80
2023-07-25T21:33:14.319Z,20.72
2023-07-25T21:35:43.418Z,20.66
2023-07-25T21:38:12.830Z,20.60
2023-07-25T21:40:41.914Z,20.58
2023-07-25T21:43:12.729Z,20.55
2023-07-25T21:45:41.847Z,20.52
2023-07-25T21:48:11.340Z,20.44
2023-07-25T21:50:40.391Z,20.38
2023-07-25T21:53:09.981Z,20.31
2023-07-25T21:55:39.137Z,20.27
2023-07-25T21:58:08.638Z,20.23
2023-07-25T22:00:39.222Z,20.20
2023-07-25T22:03:08.906Z,20.18
2023-07-25T22:05:38.157Z,20.14
2023-07-25T22:08:07.632Z,20.10
2023-07-25T22:10:37.074Z,20.04
2023-07-25T22:13:06.669Z,20.02
2023-07-25T22:15:35.959Z,20.00
2023-07-25T22:18:06.911Z,19.97
2023-07-25T22:20:51.001Z,19.94
2023-07-25T22:23:22.269Z,19.92
2023-07-25T22:25:51.372Z,19.89
2023-07-25T22:28:20.808Z,19.83
2023-07-25T22:30:49.866Z,19.79
2023-07-25T22:33:20.706Z,19.76
2023-07-25T22:35:49.789Z,19.71
2023-07-25T22:38:19.201Z,19.68
2023-07-25T22:40:48.309Z,19.65
2023-07-25T22:43:17.728Z,19.62
2023-07-25T22:45:46.893Z,19.60
2023-07-25T22:48:16.409Z,19.57
2023-07-25T22:50:46.852Z,19.56
2023-07-25T22:53:16.324Z,19.54
2023-07-25T22:55:45.412Z,19.51
2023-07-25T22:58:14.805Z,19.49
2023-07-25T23:00:43.917Z,19.45
2023-07-25T23:03:13.364Z,19.38
2023-07-25T23:05:42.580Z,19.36
2023-07-25T23:08:13.501Z,19.34
2023-07-25T23:10:42.603Z,19.27
2023-07-25T23:13:11.978Z,19.25
2023-07-25T23:15:43.250Z,19.21
2023-07-25T23:18:12.701Z,19.15
2023-07-25T23:20:41.768Z,19.14
2023-07-25T23:23:11.159Z,19.15
2023-07-25T23:25:41.594Z,19.07
2023-07-25T23:28:11.072Z,19.04
2023-07-25T23:30:40.134Z,19.02
2023-07-25T23:33:09.642Z,19.01
2023-07-25T23:35:38.793Z,18.99
2023-07-25T23:38:08.108Z,18.98
2023-07-25T23:40:37.312Z,18.93
2023-07-25T23:43:08.104Z,18.92
2023-07-25T23:45:37.146Z,18.89
2023-07-25T23:48:06.995Z,18.85
2023-07-25T23:50:36.126Z,18.83
2023-07-25T23:53:05.521Z,18.80
2023-07-25T23:55:34.859Z,18.78
2023-07-25T23:58:04.247Z,18.77
